sensor_id;sensor_type;location;lat;lon;timestamp;temperature;humidity
25945;SHT31;13742;49.306;8.636;2022-10-15T00:00:01;15.05;94.69
25945;SHT31;13742;49.306;8.636;2022-10-15T00:01:07;15.06;94.78
25945;SHT31;13742;49.306;8.636;2022-10-15T00:02:02;15.05;94.72
25945;SHT31;13742;49.306;8.636;2022-10-15T00:03:01;15.05;94.96
25945;SHT31;13742;49.306;8.636;2022-10-15T00:04:01;15.10;95.04
25945;SHT31;13742;49.306;8.636;2022-10-15T00:05:01;15.09;94.90
25945;SHT31;13742;49.306;8.636;2022-10-15T00:06:06;15.06;95.05
25945;SHT31;13742;49.306;8.636;2022-10-15T00:07:01;15.09;95.06
25945;SHT31;13742;49.306;8.636;2022-10-15T00:08:01;15.07;94.93
25945;SHT31;13742;49.306;8.636;2022-10-15T00:09:01;15.07;94.95
25945;SHT31;13742;49.306;8.636;2022-10-15T00:10:01;15.09;94.87
25945;SHT31;13742;49.306;8.636;2022-10-15T00:11:06;15.09;94.87
25945;SHT31;13742;49.306;8.636;2022-10-15T00:12:01;15.10;94.81
25945;SHT31;13742;49.306;8.636;2022-10-15T00:13:01;15.09;94.94
25945;SHT31;13742;49.306;8.636;2022-10-15T00:14:01;15.09;94.99
25945;SHT31;13742;49.306;8.636;2022-10-15T00:15:01;15.10;94.95
25945;SHT31;13742;49.306;8.636;2022-10-15T00:16:01;15.10;95.05
25945;SHT31;13742;49.306;8.636;2022-10-15T00:17:01;15.07;94.99
25945;SHT31;13742;49.306;8.636;2022-10-15T00:18:01;15.10;95.02
25945;SHT31;13742;49.306;8.636;2022-10-15T00:19:01;15.11;95.19
25945;SHT31;13742;49.306;8.636;2022-10-15T00:20:02;15.10;95.02
25945;SHT31;13742;49.306;8.636;2022-10-15T00:21:04;15.11;95.01
25945;SHT31;13742;49.306;8.636;2022-10-15T00:22:01;15.11;95.03
25945;SHT31;13742;49.306;8.636;2022-10-15T00:23:01;15.10;95.12
25945;SHT31;13742;49.306;8.636;2022-10-15T00:24:01;15.13;95.01
25945;SHT31;13742;49.306;8.636;2022-10-15T00:25:01;15.14;94.93
25945;SHT31;13742;49.306;8.636;2022-10-15T00:26:12;15.13;95.16
25945;SHT31;13742;49.306;8.636;2022-10-15T00:27:01;15.11;95.05
25945;SHT31;13742;49.306;8.636;2022-10-15T00:28:01;15.11;95.01
25945;SHT31;13742;49.306;8.636;2022-10-15T00:29:02;15.13;95.08
25945;SHT31;13742;49.306;8.636;2022-10-15T00:30:03;15.13;95.16
25945;SHT31;13742;49.306;8.636;2022-10-15T00:31:10;15.16;95.27
25945;SHT31;13742;49.306;8.636;2022-10-15T00:32:01;15.16;95.25
25945;SHT31;13742;49.306;8.636;2022-10-15T00:33:01;15.17;95.31
25945;SHT31;13742;49.306;8.636;2022-10-15T00:34:02;15.17;95.41
25945;SHT31;13742;49.306;8.636;2022-10-15T00:35:01;15.16;95.35
25945;SHT31;13742;49.306;8.636;2022-10-15T00:36:06;15.17;95.23
25945;SHT31;13742;49.306;8.636;2022-10-15T00:37:01;15.17;95.62
25945;SHT31;13742;49.306;8.636;2022-10-15T00:38:01;15.20;95.73
25945;SHT31;13742;49.306;8.636;2022-10-15T00:39:03;15.19;95.54
25945;SHT31;13742;49.306;8.636;2022-10-15T00:40:01;15.20;95.32
25945;SHT31;13742;49.306;8.636;2022-10-15T00:41:03;15.17;95.24
25945;SHT31;13742;49.306;8.636;2022-10-15T00:42:01;15.21;95.15
25945;SHT31;13742;49.306;8.636;2022-10-15T00:43:01;15.20;95.23
25945;SHT31;13742;49.306;8.636;2022-10-15T00:45:01;15.21;95.35
25945;SHT31;13742;49.306;8.636;2022-10-15T00:46:01;15.24;96.00
25945;SHT31;13742;49.306;8.636;2022-10-15T00:47:08;15.23;95.75
25945;SHT31;13742;49.306;8.636;2022-10-15T00:48:01;15.23;95.89
25945;SHT31;13742;49.306;8.636;2022-10-15T00:49:27;15.24;95.56
25945;SHT31;13742;49.306;8.636;2022-10-15T00:51:02;15.27;95.88
25945;SHT31;13742;49.306;8.636;2022-10-15T00:52:04;15.21;95.60
25945;SHT31;13742;49.306;8.636;2022-10-15T00:53:05;15.24;95.48
25945;SHT31;13742;49.306;8.636;2022-10-15T00:54:01;15.26;95.67
25945;SHT31;13742;49.306;8.636;2022-10-15T00:55:05;15.29;95.63
25945;SHT31;13742;49.306;8.636;2022-10-15T00:56:01;15.27;95.67
25945;SHT31;13742;49.306;8.636;2022-10-15T00:57:01;15.27;95.91
25945;SHT31;13742;49.306;8.636;2022-10-15T00:58:06;15.31;96.10
25945;SHT31;13742;49.306;8.636;2022-10-15T00:59:01;15.31;96.10
25945;SHT31;13742;49.306;8.636;2022-10-15T01:00:06;15.31;96.03
25945;SHT31;13742;49.306;8.636;2022-10-15T01:01:01;15.30;96.02
25945;SHT31;13742;49.306;8.636;2022-10-15T01:02:01;15.31;95.72
25945;SHT31;13742;49.306;8.636;2022-10-15T01:03:01;15.33;96.10
25945;SHT31;13742;49.306;8.636;2022-10-15T01:04:01;15.37;96.60
25945;SHT31;13742;49.306;8.636;2022-10-15T01:05:01;15.39;96.45
25945;SHT31;13742;49.306;8.636;2022-10-15T01:06:02;15.36;96.10
25945;SHT31;13742;49.306;8.636;2022-10-15T01:07:01;15.37;96.05
25945;SHT31;13742;49.306;8.636;2022-10-15T01:08:01;15.37;96.02
25945;SHT31;13742;49.306;8.636;2022-10-15T01:09:01;15.41;96.22
25945;SHT31;13742;49.306;8.636;2022-10-15T01:10:02;15.39;96.24
25945;SHT31;13742;49.306;8.636;2022-10-15T01:11:39;15.40;96.07
25945;SHT31;13742;49.306;8.636;2022-10-15T01:12:01;15.39;96.04
25945;SHT31;13742;49.306;8.636;2022-10-15T01:13:11;15.39;96.34
25945;SHT31;13742;49.306;8.636;2022-10-15T01:14:11;15.41;96.31
25945;SHT31;13742;49.306;8.636;2022-10-15T01:16:27;15.46;96.78
25945;SHT31;13742;49.306;8.636;2022-10-15T01:18:08;15.46;96.50
25945;SHT31;13742;49.306;8.636;2022-10-15T01:19:06;15.46;96.47
25945;SHT31;13742;49.306;8.636;2022-10-15T01:21:08;15.48;96.66
25945;SHT31;13742;49.306;8.636;2022-10-15T01:22:05;15.48;96.76
25945;SHT31;13742;49.306;8.636;2022-10-15T01:23:18;15.51;96.90
25945;SHT31;13742;49.306;8.636;2022-10-15T01:34:04;15.54;96.69
25945;SHT31;13742;49.306;8.636;2022-10-15T01:37:07;15.57;97.00
25945;SHT31;13742;49.306;8.636;2022-10-15T01:38:12;15.58;97.02
25945;SHT31;13742;49.306;8.636;2022-10-15T01:40:12;15.57;97.00
25945;SHT31;13742;49.306;8.636;2022-10-15T01:41:19;15.58;96.89
25945;SHT31;13742;49.306;8.636;2022-10-15T01:43:09;15.60;96.80
25945;SHT31;13742;49.306;8.636;2022-10-15T01:45:07;15.61;96.95
25945;SHT31;13742;49.306;8.636;2022-10-15T01:46:05;15.60;96.80
25945;SHT31;13742;49.306;8.636;2022-10-15T01:47:05;15.62;96.87
25945;SHT31;13742;49.306;8.636;2022-10-15T01:48:07;15.61;97.05
25945;SHT31;13742;49.306;8.636;2022-10-15T01:49:02;15.60;96.75
25945;SHT31;13742;49.306;8.636;2022-10-15T01:50:02;15.60;96.78
25945;SHT31;13742;49.306;8.636;2022-10-15T01:51:03;15.62;96.88
25945;SHT31;13742;49.306;8.636;2022-10-15T01:52:05;15.61;96.72
25945;SHT31;13742;49.306;8.636;2022-10-15T01:53:03;15.61;96.64
25945;SHT31;13742;49.306;8.636;2022-10-15T01:54:04;15.64;97.15
25945;SHT31;13742;49.306;8.636;2022-10-15T01:55:02;15.62;97.04
25945;SHT31;13742;49.306;8.636;2022-10-15T01:56:05;15.64;96.99
25945;SHT31;13742;49.306;8.636;2022-10-15T01:57:02;15.64;96.90
25945;SHT31;13742;49.306;8.636;2022-10-15T01:58:02;15.65;97.07
25945;SHT31;13742;49.306;8.636;2022-10-15T01:59:01;15.67;96.99
25945;SHT31;13742;49.306;8.636;2022-10-15T02:00:02;15.65;96.98
25945;SHT31;13742;49.306;8.636;2022-10-15T02:01:01;15.65;97.07
25945;SHT31;13742;49.306;8.636;2022-10-15T02:02:01;15.67;97.09
25945;SHT31;13742;49.306;8.636;2022-10-15T02:03:01;15.68;97.07
25945;SHT31;13742;49.306;8.636;2022-10-15T02:04:01;15.67;97.07
25945;SHT31;13742;49.306;8.636;2022-10-15T02:05:01;15.70;97.16
25945;SHT31;13742;49.306;8.636;2022-10-15T02:06:06;15.72;97.06
25945;SHT31;13742;49.306;8.636;2022-10-15T02:07:14;15.68;96.87
25945;SHT31;13742;49.306;8.636;2022-10-15T02:08:22;15.71;96.99
25945;SHT31;13742;49.306;8.636;2022-10-15T02:09:11;15.70;97.04
25945;SHT31;13742;49.306;8.636;2022-10-15T02:11:07;15.70;97.07
25945;SHT31;13742;49.306;8.636;2022-10-15T02:13:18;15.71;97.03
25945;SHT31;13742;49.306;8.636;2022-10-15T02:14:10;15.71;97.00
25945;SHT31;13742;49.306;8.636;2022-10-15T02:17:09;15.75;97.22
25945;SHT31;13742;49.306;8.636;2022-10-15T02:20:08;15.78;97.18
25945;SHT31;13742;49.306;8.636;2022-10-15T02:21:05;15.78;97.14
25945;SHT31;13742;49.306;8.636;2022-10-15T02:22:07;15.79;97.17
25945;SHT31;13742;49.306;8.636;2022-10-15T02:23:09;15.78;97.10
25945;SHT31;13742;49.306;8.636;2022-10-15T02:25:04;15.79;97.12
25945;SHT31;13742;49.306;8.636;2022-10-15T02:26:03;15.79;97.18
25945;SHT31;13742;49.306;8.636;2022-10-15T02:27:01;15.79;97.21
25945;SHT31;13742;49.306;8.636;2022-10-15T02:28:02;15.79;97.02
25945;SHT31;13742;49.306;8.636;2022-10-15T02:29:01;15.81;97.19
25945;SHT31;13742;49.306;8.636;2022-10-15T02:30:03;15.79;97.02
25945;SHT31;13742;49.306;8.636;2022-10-15T02:31:02;15.77;97.01
25945;SHT31;13742;49.306;8.636;2022-10-15T02:32:02;15.79;97.07
25945;SHT31;13742;49.306;8.636;2022-10-15T02:33:01;15.78;97.12
25945;SHT31;13742;49.306;8.636;2022-10-15T02:34:04;15.81;97.06
25945;SHT31;13742;49.306;8.636;2022-10-15T02:35:01;15.79;96.99
25945;SHT31;13742;49.306;8.636;2022-10-15T02:36:01;15.78;96.95
25945;SHT31;13742;49.306;8.636;2022-10-15T02:37:02;15.81;97.19
25945;SHT31;13742;49.306;8.636;2022-10-15T02:38:04;15.82;97.22
25945;SHT31;13742;49.306;8.636;2022-10-15T02:39:02;15.82;97.22
25945;SHT31;13742;49.306;8.636;2022-10-15T02:40:01;15.84;97.12
25945;SHT31;13742;49.306;8.636;2022-10-15T02:41:01;15.82;97.05
25945;SHT31;13742;49.306;8.636;2022-10-15T02:42:01;15.81;97.10
25945;SHT31;13742;49.306;8.636;2022-10-15T02:43:04;15.79;97.04
25945;SHT31;13742;49.306;8.636;2022-10-15T02:44:02;15.84;97.10
25945;SHT31;13742;49.306;8.636;2022-10-15T02:45:01;15.84;97.19
25945;SHT31;13742;49.306;8.636;2022-10-15T02:46:01;15.82;97.01
25945;SHT31;13742;49.306;8.636;2022-10-15T02:47:01;15.82;97.08
25945;SHT31;13742;49.306;8.636;2022-10-15T02:48:01;15.81;97.06
25945;SHT31;13742;49.306;8.636;2022-10-15T02:49:01;15.81;97.00
25945;SHT31;13742;49.306;8.636;2022-10-15T02:50:02;15.84;97.11
25945;SHT31;13742;49.306;8.636;2022-10-15T02:51:00;15.82;97.13
25945;SHT31;13742;49.306;8.636;2022-10-15T02:52:00;15.82;97.07
25945;SHT31;13742;49.306;8.636;2022-10-15T02:53:01;15.81;96.95
25945;SHT31;13742;49.306;8.636;2022-10-15T02:54:02;15.81;97.03
25945;SHT31;13742;49.306;8.636;2022-10-15T02:55:01;15.82;97.06
25945;SHT31;13742;49.306;8.636;2022-10-15T02:56:01;15.86;97.17
25945;SHT31;13742;49.306;8.636;2022-10-15T02:57:01;15.85;97.06
25945;SHT31;13742;49.306;8.636;2022-10-15T02:58:01;15.82;96.99
25945;SHT31;13742;49.306;8.636;2022-10-15T02:59:00;15.85;97.16
25945;SHT31;13742;49.306;8.636;2022-10-15T03:00:01;15.82;97.03
25945;SHT31;13742;49.306;8.636;2022-10-15T03:01:01;15.85;96.97
25945;SHT31;13742;49.306;8.636;2022-10-15T03:02:01;15.84;97.12
25945;SHT31;13742;49.306;8.636;2022-10-15T03:03:01;15.84;97.09
25945;SHT31;13742;49.306;8.636;2022-10-15T03:04:01;15.85;97.17
25945;SHT31;13742;49.306;8.636;2022-10-15T03:05:00;15.85;97.24
25945;SHT31;13742;49.306;8.636;2022-10-15T03:06:01;15.85;97.12
25945;SHT31;13742;49.306;8.636;2022-10-15T03:07:01;15.85;97.19
25945;SHT31;13742;49.306;8.636;2022-10-15T03:08:01;15.88;97.33
25945;SHT31;13742;49.306;8.636;2022-10-15T03:09:00;15.89;97.24
25945;SHT31;13742;49.306;8.636;2022-10-15T03:10:00;15.89;97.25
25945;SHT31;13742;49.306;8.636;2022-10-15T03:11:01;15.88;97.15
25945;SHT31;13742;49.306;8.636;2022-10-15T03:12:01;15.88;97.27
25945;SHT31;13742;49.306;8.636;2022-10-15T03:13:02;15.89;97.22
25945;SHT31;13742;49.306;8.636;2022-10-15T03:14:01;15.91;97.35
25945;SHT31;13742;49.306;8.636;2022-10-15T03:15:01;15.91;97.31
25945;SHT31;13742;49.306;8.636;2022-10-15T03:16:06;15.93;97.41
25945;SHT31;13742;49.306;8.636;2022-10-15T03:17:00;15.92;97.34
25945;SHT31;13742;49.306;8.636;2022-10-15T03:18:00;15.92;97.24
25945;SHT31;13742;49.306;8.636;2022-10-15T03:19:00;15.91;97.17
25945;SHT31;13742;49.306;8.636;2022-10-15T03:20:01;15.93;97.28
25945;SHT31;13742;49.306;8.636;2022-10-15T03:21:01;15.91;97.15
25945;SHT31;13742;49.306;8.636;2022-10-15T03:22:00;15.92;97.31
25945;SHT31;13742;49.306;8.636;2022-10-15T03:23:01;15.92;97.18
25945;SHT31;13742;49.306;8.636;2022-10-15T03:24:00;15.93;97.17
25945;SHT31;13742;49.306;8.636;2022-10-15T03:25:00;15.93;97.30
25945;SHT31;13742;49.306;8.636;2022-10-15T03:26:01;15.91;97.36
25945;SHT31;13742;49.306;8.636;2022-10-15T03:27:00;15.92;97.18
25945;SHT31;13742;49.306;8.636;2022-10-15T03:28:00;15.92;97.17
25945;SHT31;13742;49.306;8.636;2022-10-15T03:29:00;15.92;97.25
25945;SHT31;13742;49.306;8.636;2022-10-15T03:30:00;15.95;97.23
25945;SHT31;13742;49.306;8.636;2022-10-15T03:31:01;15.92;97.19
25945;SHT31;13742;49.306;8.636;2022-10-15T03:32:00;15.96;97.30
25945;SHT31;13742;49.306;8.636;2022-10-15T03:33:01;15.92;97.29
25945;SHT31;13742;49.306;8.636;2022-10-15T03:34:00;15.93;97.19
25945;SHT31;13742;49.306;8.636;2022-10-15T03:35:00;15.92;97.22
25945;SHT31;13742;49.306;8.636;2022-10-15T03:36:00;15.95;97.30
25945;SHT31;13742;49.306;8.636;2022-10-15T03:37:00;15.93;97.27
25945;SHT31;13742;49.306;8.636;2022-10-15T03:38:01;15.93;97.27
25945;SHT31;13742;49.306;8.636;2022-10-15T03:39:00;15.93;97.39
25945;SHT31;13742;49.306;8.636;2022-10-15T03:40:01;15.92;97.27
25945;SHT31;13742;49.306;8.636;2022-10-15T03:41:00;15.93;97.25
25945;SHT31;13742;49.306;8.636;2022-10-15T03:42:00;15.95;97.27
25945;SHT31;13742;49.306;8.636;2022-10-15T03:43:00;15.98;97.33
25945;SHT31;13742;49.306;8.636;2022-10-15T03:44:01;15.98;97.21
25945;SHT31;13742;49.306;8.636;2022-10-15T03:45:00;15.98;97.42
25945;SHT31;13742;49.306;8.636;2022-10-15T03:46:03;15.96;97.40
25945;SHT31;13742;49.306;8.636;2022-10-15T03:47:00;15.99;97.58
25945;SHT31;13742;49.306;8.636;2022-10-15T03:48:00;15.96;97.33
25945;SHT31;13742;49.306;8.636;2022-10-15T03:49:01;15.95;97.46
25945;SHT31;13742;49.306;8.636;2022-10-15T03:50:01;15.99;97.39
25945;SHT31;13742;49.306;8.636;2022-10-15T03:51:00;15.96;97.27
25945;SHT31;13742;49.306;8.636;2022-10-15T03:52:00;15.98;97.42
25945;SHT31;13742;49.306;8.636;2022-10-15T03:53:04;15.98;97.50
25945;SHT31;13742;49.306;8.636;2022-10-15T03:54:00;15.99;97.51
25945;SHT31;13742;49.306;8.636;2022-10-15T03:55:00;15.99;97.41
25945;SHT31;13742;49.306;8.636;2022-10-15T03:56:04;15.99;97.41
25945;SHT31;13742;49.306;8.636;2022-10-15T03:57:00;15.98;97.37
25945;SHT31;13742;49.306;8.636;2022-10-15T03:58:01;15.96;97.39
25945;SHT31;13742;49.306;8.636;2022-10-15T03:59:00;15.93;97.23
25945;SHT31;13742;49.306;8.636;2022-10-15T04:00:01;15.96;97.30
25945;SHT31;13742;49.306;8.636;2022-10-15T04:01:01;15.98;97.38
25945;SHT31;13742;49.306;8.636;2022-10-15T04:02:01;15.98;97.54
25945;SHT31;13742;49.306;8.636;2022-10-15T04:03:00;15.98;97.49
25945;SHT31;13742;49.306;8.636;2022-10-15T04:04:00;15.98;97.45
25945;SHT31;13742;49.306;8.636;2022-10-15T04:05:00;16.00;97.48
25945;SHT31;13742;49.306;8.636;2022-10-15T04:06:00;16.00;97.29
25945;SHT31;13742;49.306;8.636;2022-10-15T04:07:00;16.00;97.45
25945;SHT31;13742;49.306;8.636;2022-10-15T04:08:01;16.00;97.52
25945;SHT31;13742;49.306;8.636;2022-10-15T04:09:00;16.02;97.49
25945;SHT31;13742;49.306;8.636;2022-10-15T04:10:00;16.00;97.49
25945;SHT31;13742;49.306;8.636;2022-10-15T04:11:00;16.00;97.42
25945;SHT31;13742;49.306;8.636;2022-10-15T04:12:00;16.00;97.37
25945;SHT31;13742;49.306;8.636;2022-10-15T04:13:00;16.00;97.44
25945;SHT31;13742;49.306;8.636;2022-10-15T04:14:01;16.00;97.33
25945;SHT31;13742;49.306;8.636;2022-10-15T04:15:01;16.00;97.50
25945;SHT31;13742;49.306;8.636;2022-10-15T04:16:03;16.02;97.47
25945;SHT31;13742;49.306;8.636;2022-10-15T04:17:00;16.02;97.49
25945;SHT31;13742;49.306;8.636;2022-10-15T04:18:00;15.99;97.45
25945;SHT31;13742;49.306;8.636;2022-10-15T04:19:00;16.02;97.48
25945;SHT31;13742;49.306;8.636;2022-10-15T04:20:00;16.04;97.44
25945;SHT31;13742;49.306;8.636;2022-10-15T04:21:01;16.04;97.61
25945;SHT31;13742;49.306;8.636;2022-10-15T04:22:00;16.05;97.53
25945;SHT31;13742;49.306;8.636;2022-10-15T04:23:00;16.05;97.49
25945;SHT31;13742;49.306;8.636;2022-10-15T04:24:00;16.04;97.50
25945;SHT31;13742;49.306;8.636;2022-10-15T04:25:00;16.04;97.50
25945;SHT31;13742;49.306;8.636;2022-10-15T04:26:01;16.05;97.48
25945;SHT31;13742;49.306;8.636;2022-10-15T04:27:00;16.05;97.59
25945;SHT31;13742;49.306;8.636;2022-10-15T04:28:01;16.05;97.49
25945;SHT31;13742;49.306;8.636;2022-10-15T04:29:00;16.02;97.42
25945;SHT31;13742;49.306;8.636;2022-10-15T04:30:00;16.00;97.42
25945;SHT31;13742;49.306;8.636;2022-10-15T04:31:00;16.00;97.44
25945;SHT31;13742;49.306;8.636;2022-10-15T04:32:00;16.05;97.42
25945;SHT31;13742;49.306;8.636;2022-10-15T04:33:00;16.05;97.53
25945;SHT31;13742;49.306;8.636;2022-10-15T04:34:00;16.07;97.61
25945;SHT31;13742;49.306;8.636;2022-10-15T04:35:00;16.05;97.45
25945;SHT31;13742;49.306;8.636;2022-10-15T04:36:03;16.09;97.52
25945;SHT31;13742;49.306;8.636;2022-10-15T04:37:00;16.07;97.49
25945;SHT31;13742;49.306;8.636;2022-10-15T04:38:01;16.07;97.37
25945;SHT31;13742;49.306;8.636;2022-10-15T04:39:01;16.02;97.35
25945;SHT31;13742;49.306;8.636;2022-10-15T04:40:01;16.05;97.42
25945;SHT31;13742;49.306;8.636;2022-10-15T04:41:04;16.04;97.42
25945;SHT31;13742;49.306;8.636;2022-10-15T04:42:00;16.07;97.47
25945;SHT31;13742;49.306;8.636;2022-10-15T04:43:00;16.04;97.44
25945;SHT31;13742;49.306;8.636;2022-10-15T04:44:00;16.08;97.56
25945;SHT31;13742;49.306;8.636;2022-10-15T04:45:00;16.08;97.53
25945;SHT31;13742;49.306;8.636;2022-10-15T04:46:03;16.05;97.57
25945;SHT31;13742;49.306;8.636;2022-10-15T04:47:01;16.09;97.54
25945;SHT31;13742;49.306;8.636;2022-10-15T04:48:00;16.08;97.54
25945;SHT31;13742;49.306;8.636;2022-10-15T04:49:00;16.08;97.42
25945;SHT31;13742;49.306;8.636;2022-10-15T04:50:00;16.09;97.44
25945;SHT31;13742;49.306;8.636;2022-10-15T04:51:08;16.09;97.49
25945;SHT31;13742;49.306;8.636;2022-10-15T04:52:00;16.11;97.47
25945;SHT31;13742;49.306;8.636;2022-10-15T04:53:00;16.09;97.43
25945;SHT31;13742;49.306;8.636;2022-10-15T04:54:00;16.08;97.43
25945;SHT31;13742;49.306;8.636;2022-10-15T04:55:02;16.09;97.42
25945;SHT31;13742;49.306;8.636;2022-10-15T04:56:02;16.11;97.45
25945;SHT31;13742;49.306;8.636;2022-10-15T04:57:02;16.09;97.39
25945;SHT31;13742;49.306;8.636;2022-10-15T04:58:00;16.11;97.36
25945;SHT31;13742;49.306;8.636;2022-10-15T04:59:00;16.09;97.38
25945;SHT31;13742;49.306;8.636;2022-10-15T05:00:00;16.08;97.32
25945;SHT31;13742;49.306;8.636;2022-10-15T05:01:03;16.11;97.30
25945;SHT31;13742;49.306;8.636;2022-10-15T05:02:00;16.09;97.28
25945;SHT31;13742;49.306;8.636;2022-10-15T05:03:00;16.08;97.34
25945;SHT31;13742;49.306;8.636;2022-10-15T05:04:00;16.07;97.38
25945;SHT31;13742;49.306;8.636;2022-10-15T05:05:00;16.08;97.23
25945;SHT31;13742;49.306;8.636;2022-10-15T05:06:03;16.04;97.34
25945;SHT31;13742;49.306;8.636;2022-10-15T05:07:00;16.07;97.35
25945;SHT31;13742;49.306;8.636;2022-10-15T05:08:02;16.08;97.31
25945;SHT31;13742;49.306;8.636;2022-10-15T05:09:01;16.08;97.36
25945;SHT31;13742;49.306;8.636;2022-10-15T05:10:01;16.07;97.40
25945;SHT31;13742;49.306;8.636;2022-10-15T05:11:06;16.08;97.42
25945;SHT31;13742;49.306;8.636;2022-10-15T05:12:00;16.08;97.42
25945;SHT31;13742;49.306;8.636;2022-10-15T05:13:00;16.08;97.44
25945;SHT31;13742;49.306;8.636;2022-10-15T05:14:00;16.09;97.33
25945;SHT31;13742;49.306;8.636;2022-10-15T05:15:00;16.07;97.23
25945;SHT31;13742;49.306;8.636;2022-10-15T05:16:25;16.08;97.23
25945;SHT31;13742;49.306;8.636;2022-10-15T05:17:00;16.05;97.24
25945;SHT31;13742;49.306;8.636;2022-10-15T05:18:00;16.08;97.32
25945;SHT31;13742;49.306;8.636;2022-10-15T05:19:05;16.08;97.38
25945;SHT31;13742;49.306;8.636;2022-10-15T05:20:00;16.07;97.45
25945;SHT31;13742;49.306;8.636;2022-10-15T05:21:01;16.05;97.39
25945;SHT31;13742;49.306;8.636;2022-10-15T05:22:00;16.05;97.31
25945;SHT31;13742;49.306;8.636;2022-10-15T05:23:00;16.07;97.27
25945;SHT31;13742;49.306;8.636;2022-10-15T05:24:00;16.08;97.31
25945;SHT31;13742;49.306;8.636;2022-10-15T05:25:00;16.07;97.30
25945;SHT31;13742;49.306;8.636;2022-10-15T05:26:03;16.07;97.30
25945;SHT31;13742;49.306;8.636;2022-10-15T05:27:00;16.02;97.30
25945;SHT31;13742;49.306;8.636;2022-10-15T05:28:00;16.05;97.22
25945;SHT31;13742;49.306;8.636;2022-10-15T05:29:01;16.05;97.29
25945;SHT31;13742;49.306;8.636;2022-10-15T05:30:00;16.04;97.24
25945;SHT31;13742;49.306;8.636;2022-10-15T05:31:06;16.02;97.25
25945;SHT31;13742;49.306;8.636;2022-10-15T05:32:01;16.02;97.27
25945;SHT31;13742;49.306;8.636;2022-10-15T05:33:00;16.02;97.18
25945;SHT31;13742;49.306;8.636;2022-10-15T05:34:06;16.04;97.21
25945;SHT31;13742;49.306;8.636;2022-10-15T05:35:00;16.02;97.22
25945;SHT31;13742;49.306;8.636;2022-10-15T05:37:00;16.02;97.37
25945;SHT31;13742;49.306;8.636;2022-10-15T05:38:00;16.02;97.34
25945;SHT31;13742;49.306;8.636;2022-10-15T05:39:02;16.02;97.31
25945;SHT31;13742;49.306;8.636;2022-10-15T05:40:00;16.00;97.31
25945;SHT31;13742;49.306;8.636;2022-10-15T05:41:00;16.00;97.26
25945;SHT31;13742;49.306;8.636;2022-10-15T05:42:00;15.99;97.18
25945;SHT31;13742;49.306;8.636;2022-10-15T05:43:00;16.00;97.18
25945;SHT31;13742;49.306;8.636;2022-10-15T05:44:00;15.99;97.27
25945;SHT31;13742;49.306;8.636;2022-10-15T05:45:00;15.99;97.15
25945;SHT31;13742;49.306;8.636;2022-10-15T05:46:00;16.00;97.25
25945;SHT31;13742;49.306;8.636;2022-10-15T05:47:00;16.00;97.24
25945;SHT31;13742;49.306;8.636;2022-10-15T05:48:00;16.00;97.19
25945;SHT31;13742;49.306;8.636;2022-10-15T05:49:00;16.00;97.31
25945;SHT31;13742;49.306;8.636;2022-10-15T05:50:01;15.99;97.21
25945;SHT31;13742;49.306;8.636;2022-10-15T05:51:03;15.99;97.19
25945;SHT31;13742;49.306;8.636;2022-10-15T05:52:00;15.99;97.22
25945;SHT31;13742;49.306;8.636;2022-10-15T05:53:00;16.00;97.18
25945;SHT31;13742;49.306;8.636;2022-10-15T05:54:00;16.00;97.19
25945;SHT31;13742;49.306;8.636;2022-10-15T05:55:00;16.00;97.28
25945;SHT31;13742;49.306;8.636;2022-10-15T05:56:00;15.99;97.25
25945;SHT31;13742;49.306;8.636;2022-10-15T05:57:00;16.02;97.20
25945;SHT31;13742;49.306;8.636;2022-10-15T05:58:02;16.02;97.11
25945;SHT31;13742;49.306;8.636;2022-10-15T05:59:02;16.00;97.13
25945;SHT31;13742;49.306;8.636;2022-10-15T06:00:02;15.99;97.06
25945;SHT31;13742;49.306;8.636;2022-10-15T06:01:04;15.99;97.17
25945;SHT31;13742;49.306;8.636;2022-10-15T06:02:00;16.02;97.18
25945;SHT31;13742;49.306;8.636;2022-10-15T06:03:00;16.02;97.19
25945;SHT31;13742;49.306;8.636;2022-10-15T06:04:00;15.99;97.03
25945;SHT31;13742;49.306;8.636;2022-10-15T06:05:00;15.99;97.04
25945;SHT31;13742;49.306;8.636;2022-10-15T06:06:00;15.99;97.06
25945;SHT31;13742;49.306;8.636;2022-10-15T06:07:00;15.99;97.08
25945;SHT31;13742;49.306;8.636;2022-10-15T06:08:00;16.00;97.07
25945;SHT31;13742;49.306;8.636;2022-10-15T06:09:01;15.99;97.02
25945;SHT31;13742;49.306;8.636;2022-10-15T06:10:01;16.00;97.00
25945;SHT31;13742;49.306;8.636;2022-10-15T06:11:02;15.99;96.93
25945;SHT31;13742;49.306;8.636;2022-10-15T06:12:00;15.98;97.02
25945;SHT31;13742;49.306;8.636;2022-10-15T06:13:00;15.99;97.06
25945;SHT31;13742;49.306;8.636;2022-10-15T06:14:00;15.99;97.08
25945;SHT31;13742;49.306;8.636;2022-10-15T06:15:00;15.98;96.98
25945;SHT31;13742;49.306;8.636;2022-10-15T06:16:02;15.98;96.93
25945;SHT31;13742;49.306;8.636;2022-10-15T06:17:00;15.98;96.89
25945;SHT31;13742;49.306;8.636;2022-10-15T06:18:00;15.98;96.90
25945;SHT31;13742;49.306;8.636;2022-10-15T06:19:00;15.96;96.90
25945;SHT31;13742;49.306;8.636;2022-10-15T06:20:00;15.95;96.99
25945;SHT31;13742;49.306;8.636;2022-10-15T06:21:00;15.98;97.10
25945;SHT31;13742;49.306;8.636;2022-10-15T06:22:00;15.95;96.98
25945;SHT31;13742;49.306;8.636;2022-10-15T06:23:01;15.98;97.05
25945;SHT31;13742;49.306;8.636;2022-10-15T06:24:00;15.95;97.01
25945;SHT31;13742;49.306;8.636;2022-10-15T06:25:00;15.99;96.92
25945;SHT31;13742;49.306;8.636;2022-10-15T06:26:05;15.96;96.96
25945;SHT31;13742;49.306;8.636;2022-10-15T06:27:00;15.95;96.97
25945;SHT31;13742;49.306;8.636;2022-10-15T06:28:02;15.95;96.94
25945;SHT31;13742;49.306;8.636;2022-10-15T06:29:00;15.96;96.90
25945;SHT31;13742;49.306;8.636;2022-10-15T06:30:01;15.95;96.82
25945;SHT31;13742;49.306;8.636;2022-10-15T06:31:01;15.96;96.86
25945;SHT31;13742;49.306;8.636;2022-10-15T06:32:01;15.96;97.01
25945;SHT31;13742;49.306;8.636;2022-10-15T06:33:00;15.96;96.89
25945;SHT31;13742;49.306;8.636;2022-10-15T06:34:00;15.93;96.76
25945;SHT31;13742;49.306;8.636;2022-10-15T06:35:00;15.93;96.84
25945;SHT31;13742;49.306;8.636;2022-10-15T06:36:10;15.96;96.81
25945;SHT31;13742;49.306;8.636;2022-10-15T06:37:00;15.92;96.86
25945;SHT31;13742;49.306;8.636;2022-10-15T06:38:01;15.93;96.86
25945;SHT31;13742;49.306;8.636;2022-10-15T06:39:00;15.93;96.76
25945;SHT31;13742;49.306;8.636;2022-10-15T06:40:00;15.93;96.84
25945;SHT31;13742;49.306;8.636;2022-10-15T06:41:05;15.92;96.80
25945;SHT31;13742;49.306;8.636;2022-10-15T06:42:00;15.93;96.79
25945;SHT31;13742;49.306;8.636;2022-10-15T06:43:05;15.93;96.72
25945;SHT31;13742;49.306;8.636;2022-10-15T06:44:00;15.95;96.67
25945;SHT31;13742;49.306;8.636;2022-10-15T06:45:00;15.92;96.75
25945;SHT31;13742;49.306;8.636;2022-10-15T06:46:02;15.93;96.84